LFLB 170900Z AUTO 21006KT 180V260 CAVOK 12/05 Q1022 NOSIG

ElémentsDécodage
LFLB Station météo située sur l'aérodrome de CHAMBERY Aix-les-Bains
170900Z émis le 17 du mois à 09h00 UTC
AUTO Bulletin édité par un automate
21006KT vent du 210°, 06 noeuds
180V260 vent de direction variable entre 180° et 260°
CAVOK Ceiling And Visibility OK
- Visibilité de 10 Km ou plus
- Pas de nuage au-dessous de 1500m ou au-dessous de l'altitude minimale du secteur la plus élevée (si>1500m) et absence de CB
- pas de temps présent significatif
12/05 température 12°C, point de rosée 05°C
 soit une humidité relative de 62%
Q1022 la pression au niveau de la mer (QNH) est de 1022 hPa
NOSIG Pas de changement significatif prévu au cours des deux heures suivant l'heure de l'observation